サンティアゴ の空港の天気 - METARとTAF

アルトゥーロ・メリノ・ベニテス国際空港(サンティアゴ) ( SCEL / SCL ) - チリ サンティアゴ
飛行場実況気象(Metar)
観測時間08/17 07:00 CLT (08/17 11:00 UTC)
風向・風速北北東 3m/s
視程3000m
天気現象散在した霧
なし
気温1℃
湿度100%
気圧1021hPa
METARSCEL 171100Z 03006KT 010V140 3000 0700SW R17L/1800D R17R/1500NBCFG NSC 01/01 Q1021 NOSIG
過去の天気等 Google飛行場航空写真 Wunderground天気予報

過去48時間のMETAR

飛行場予報(TAF)
発表時間: 8/17 07:39 CLT (8/17 11:39 UTC)
予報対象時間: 17日8時 CLT ~ 18日8時 CLT
風向・風速不定 1m/s
視程1500m
天気現象もや
なし
17日8時 CLT ~ 17日11時 CLT に一時的に
視程500m
天気現象
全天を覆う雲 鉛直視程 30m
17日11時 CLT ~ 17日13時 CLT に徐々に
風向・風速南南東 4m/s
視程5000m
天気現象煙霧
17日13時 CLT ~ 17日15時 CLT に徐々に
風向・風速南南西 4m/s
視程10km以上
なし
17日18時 CLT ~ 17日20時 CLT に徐々に
風向・風速南南東 2m/s
全天の4割程度の雲 雲底高度 5490m
全天の8割程度の雲 雲底高度 6710m
18日0時 CLT ~ 18日2時 CLT に徐々に
風向・風速不定 1m/s
全天の8割程度の雲 雲底高度 4880m
TAF COR SCEL 171139Z 1712/1812 VRB02KT 1500 BR NSC TX17/1718Z TN05/ 1811Z
TEMPO 1712/1715 0500 FG VV001
BECMG 1715/1717 15008KT 5000 HZ
BECMG 1717/1719 21008KT CAVOK
BECMG 1722/1800 16004KT SCT180 BKN220
BECMG 1804/1806 VRB02KT BKN160